Archival Weather

Randolph Afb

Universal City, Texas (KRND)

Report from: Monday, September 26, 2022 7:55 AM CDT
Current time: Saturday, February 4, 2023 9:49 PM CST

Current weather
Weather history
Weather forecast

Temperature22.5°C (72.5°F)
Dew point20.0°C (68.0°F)
Winds 5 kts (2.6 m/s, 5.8 mph) North-Northwest (330°)
Visibility9 mi. (14.5 km)
Clouds Sky clear
Altimeter30.02 in.Hg (1017 mB)
Relative humidity86 %
Density altitude1,077 ft. (328 m)
Sea-level pressure101.6 kPa (1016 mB, 30.00 in.Hg)
Remarks Fully automated report
Automated weather observing station with precipitation discriminator
Flight conditions Visual Meteorological Conditions
Raw dataKRND 261255Z AUTO 33005KT 9SM CLR 23/20 A3002 RMK AO2 SLP158 T02250200
An unhandled exception has occurred. See browser dev tools for details. Reload 🗙